createdAt,value
2023-01-08T00:00:06.168Z,21.89
2023-01-08T00:02:32.901Z,21.88
2023-01-08T00:04:59.565Z,21.88
2023-01-08T00:07:26.247Z,21.88
2023-01-08T00:09:55.139Z,21.88
2023-01-08T00:12:21.782Z,21.87
2023-01-08T00:14:48.508Z,21.86
2023-01-08T00:17:15.130Z,21.86
2023-01-08T00:19:43.274Z,21.85
2023-01-08T00:22:10.296Z,21.83
2023-01-08T00:24:37.067Z,21.82
2023-01-08T00:27:03.815Z,21.81
2023-01-08T00:29:30.894Z,21.80
2023-01-08T00:31:57.484Z,21.78
2023-01-08T00:34:24.195Z,21.76
2023-01-08T00:36:50.875Z,21.73
2023-01-08T00:39:17.485Z,21.72
2023-01-08T00:41:45.645Z,21.69
2023-01-08T00:44:12.347Z,21.67
2023-01-08T00:46:38.996Z,21.64
2023-01-08T00:49:05.836Z,21.61
2023-01-08T00:51:32.542Z,21.60
2023-01-08T00:53:59.251Z,21.56
2023-01-08T00:56:28.530Z,21.55
2023-01-08T00:58:55.767Z,21.52
2023-01-08T01:01:22.665Z,21.49
2023-01-08T01:03:49.365Z,21.46
2023-01-08T01:06:16.147Z,21.45
2023-01-08T01:08:44.495Z,21.42
2023-01-08T01:11:14.130Z,21.39
2023-01-08T01:13:40.743Z,21.36
2023-01-08T01:16:07.968Z,21.34
2023-01-08T01:18:35.052Z,21.30
2023-01-08T01:21:01.704Z,21.28
2023-01-08T01:23:29.096Z,21.26
2023-01-08T01:25:55.755Z,21.22
2023-01-08T01:28:22.390Z,21.20
2023-01-08T01:30:53.980Z,21.17
2023-01-08T01:33:20.700Z,21.16
2023-01-08T01:35:47.424Z,21.14
2023-01-08T01:38:14.569Z,21.12
2023-01-08T01:40:43.223Z,21.09
2023-01-08T01:43:13.724Z,21.07
2023-01-08T01:45:41.315Z,21.05
2023-01-08T01:48:11.429Z,21.02
2023-01-08T01:50:47.629Z,20.99
2023-01-08T01:53:18.333Z,20.97
2023-01-08T01:55:46.111Z,20.94
2023-01-08T01:58:14.525Z,20.90
2023-01-08T02:00:41.885Z,20.87
2023-01-08T02:03:10.148Z,20.84
2023-01-08T02:05:46.430Z,20.81
2023-01-08T02:08:15.797Z,20.79
2023-01-08T02:10:49.546Z,20.76
2023-01-08T02:13:21.112Z,20.73
2023-01-08T02:15:53.771Z,20.71
2023-01-08T02:18:25.439Z,20.67
2023-01-08T02:21:01.447Z,20.65
2023-01-08T02:23:37.688Z,20.63
2023-01-08T02:26:07.843Z,20.59
2023-01-08T02:28:38.407Z,20.56
2023-01-08T02:31:06.294Z,20.53
2023-01-08T02:33:33.367Z,20.51
2023-01-08T02:36:09.593Z,20.47
2023-01-08T02:38:37.117Z,20.44
2023-01-08T02:41:05.717Z,20.42
2023-01-08T02:43:38.329Z,20.39
2023-01-08T02:46:06.315Z,20.36
2023-01-08T02:48:34.294Z,20.34
2023-01-08T02:51:04.703Z,20.31
2023-01-08T02:53:33.583Z,20.29
2023-01-08T02:56:09.527Z,20.25
2023-01-08T02:58:37.495Z,20.26
2023-01-08T03:01:06.825Z,20.23
2023-01-08T03:03:35.242Z,20.20
2023-01-08T03:06:05.820Z,20.18
2023-01-08T03:08:35.064Z,20.17
2023-01-08T03:11:06.875Z,20.17
2023-01-08T03:13:42.491Z,20.14
2023-01-08T03:16:11.199Z,20.12
2023-01-08T03:18:41.603Z,20.10
2023-01-08T03:21:08.933Z,20.11
2023-01-08T03:23:37.507Z,20.09
2023-01-08T03:26:05.900Z,20.07
2023-01-08T03:28:39.367Z,20.08
2023-01-08T03:31:07.061Z,20.08
2023-01-08T03:33:35.205Z,20.07
2023-01-08T03:36:03.909Z,20.05
2023-01-08T03:38:34.141Z,20.05
2023-01-08T03:41:04.118Z,20.04
2023-01-08T03:43:30.838Z,20.01
2023-01-08T03:45:59.354Z,20.01
2023-01-08T03:48:26.773Z,19.99
2023-01-08T03:50:53.547Z,19.95
2023-01-08T03:53:20.180Z,19.96
2023-01-08T03:55:46.809Z,19.95
2023-01-08T03:58:13.598Z,19.93
2023-01-08T04:00:40.291Z,19.91
2023-01-08T04:03:06.932Z,19.88
2023-01-08T04:05:33.567Z,19.85
2023-01-08T04:08:00.224Z,19.83
2023-01-08T04:10:27.064Z,19.82
2023-01-08T04:12:53.653Z,19.82
2023-01-08T04:15:20.474Z,19.80
2023-01-08T04:17:47.104Z,19.79
2023-01-08T04:20:13.737Z,19.76
2023-01-08T04:22:40.462Z,19.75
2023-01-08T04:25:07.460Z,19.73
2023-01-08T04:27:34.048Z,19.72
2023-01-08T04:30:00.738Z,19.69
2023-01-08T04:32:27.359Z,19.72
2023-01-08T04:34:54.075Z,19.36
2023-01-08T04:37:20.709Z,18.94
2023-01-08T04:39:47.379Z,19.07
2023-01-08T04:42:13.975Z,19.15
2023-01-08T04:44:40.584Z,19.19
2023-01-08T04:47:07.353Z,19.21
2023-01-08T04:49:34.039Z,19.22
2023-01-08T04:52:00.734Z,19.26
2023-01-08T04:54:27.352Z,19.30
2023-01-08T04:56:54.063Z,19.37
2023-01-08T04:59:20.759Z,19.48
2023-01-08T05:01:47.549Z,19.54
2023-01-08T05:04:14.266Z,19.61
2023-01-08T05:06:40.867Z,19.64
2023-01-08T05:09:07.519Z,19.67
2023-01-08T05:11:35.745Z,19.73
2023-01-08T05:14:02.365Z,19.35
2023-01-08T05:16:28.990Z,19.46
2023-01-08T05:18:55.609Z,19.59
2023-01-08T05:21:22.239Z,19.69
2023-01-08T05:23:48.949Z,19.76
2023-01-08T05:26:16.128Z,19.80
2023-01-08T05:28:42.776Z,19.87
2023-01-08T05:31:09.590Z,19.93
2023-01-08T05:33:36.238Z,20.00
2023-01-08T05:36:04.809Z,20.06
2023-01-08T05:38:31.410Z,20.12
2023-01-08T05:40:58.018Z,20.17
2023-01-08T05:43:24.664Z,20.24
2023-01-08T05:45:51.290Z,20.30
2023-01-08T05:48:17.893Z,20.35
2023-01-08T05:50:44.718Z,20.39
2023-01-08T05:53:11.358Z,20.45
2023-01-08T05:55:38.030Z,20.51
2023-01-08T05:58:05.416Z,20.55
2023-01-08T06:00:32.750Z,20.61
2023-01-08T06:02:59.424Z,20.65
2023-01-08T06:05:26.124Z,20.70
2023-01-08T06:07:52.863Z,20.75
2023-01-08T06:10:19.503Z,20.77
2023-01-08T06:12:46.217Z,20.82
2023-01-08T06:15:13.022Z,20.84
2023-01-08T06:17:39.714Z,20.89
2023-01-08T06:20:06.781Z,20.91
2023-01-08T06:22:33.774Z,20.93
2023-01-08T06:25:00.669Z,20.95
2023-01-08T06:27:27.350Z,20.97
2023-01-08T06:29:53.952Z,20.99
2023-01-08T06:32:20.624Z,21.00
2023-01-08T06:34:47.303Z,21.03
2023-01-08T06:37:13.925Z,21.04
2023-01-08T06:39:40.518Z,21.06
2023-01-08T06:42:07.148Z,21.07
2023-01-08T06:44:33.803Z,21.07
2023-01-08T06:47:00.452Z,21.10
2023-01-08T06:49:27.173Z,21.11
2023-01-08T06:51:53.946Z,21.11
2023-01-08T06:54:20.571Z,21.13
2023-01-08T06:56:53.745Z,21.13
2023-01-08T06:59:20.983Z,21.15
2023-01-08T07:01:47.731Z,21.14
2023-01-08T07:04:14.515Z,21.14
2023-01-08T07:06:41.245Z,21.15
2023-01-08T07:09:08.288Z,21.15
2023-01-08T07:11:34.996Z,21.14
2023-01-08T07:14:01.654Z,21.13
2023-01-08T07:16:28.298Z,21.12
2023-01-08T07:18:55.058Z,21.14
2023-01-08T07:21:22.790Z,21.12
2023-01-08T07:23:49.964Z,21.12
2023-01-08T07:26:16.684Z,21.10
2023-01-08T07:28:43.689Z,21.08
2023-01-08T07:31:10.522Z,21.05
2023-01-08T07:33:37.395Z,21.03
2023-01-08T07:36:05.231Z,21.02
2023-01-08T07:38:31.843Z,20.99
2023-01-08T07:40:59.388Z,20.96
2023-01-08T07:43:26.674Z,20.92
2023-01-08T07:45:53.362Z,20.89
2023-01-08T07:48:20.011Z,20.90
2023-01-08T07:50:46.689Z,20.92
2023-01-08T07:53:13.987Z,20.95
2023-01-08T07:55:40.634Z,20.94
2023-01-08T07:58:09.176Z,20.96
2023-01-08T08:00:35.924Z,20.97
2023-01-08T08:03:04.222Z,20.99
2023-01-08T08:05:30.969Z,21.02
2023-01-08T08:07:57.673Z,21.04
2023-01-08T08:10:24.317Z,21.06
2023-01-08T08:12:50.957Z,21.10
2023-01-08T08:15:17.599Z,21.12
2023-01-08T08:17:45.353Z,21.14
2023-01-08T08:20:12.321Z,21.16
2023-01-08T08:22:38.953Z,21.17
2023-01-08T08:25:05.789Z,21.20
2023-01-08T08:27:32.408Z,21.22
2023-01-08T08:29:59.000Z,21.23
2023-01-08T08:32:25.737Z,21.24
2023-01-08T08:34:52.388Z,21.25
2023-01-08T08:37:19.048Z,21.26
2023-01-08T08:39:45.686Z,21.27
2023-01-08T08:42:12.353Z,21.28
2023-01-08T08:44:41.291Z,21.30
2023-01-08T08:47:09.628Z,21.31
2023-01-08T08:49:37.308Z,21.32
2023-01-08T08:52:04.456Z,21.34
2023-01-08T08:54:31.275Z,21.33
2023-01-08T08:56:57.999Z,21.33
2023-01-08T08:59:24.708Z,21.35
2023-01-08T09:01:51.478Z,21.36
2023-01-08T09:04:18.410Z,21.35
2023-01-08T09:06:45.055Z,21.35
2023-01-08T09:09:11.737Z,21.36
2023-01-08T09:11:38.353Z,21.36
2023-01-08T09:14:05.028Z,21.37
2023-01-08T09:16:33.230Z,21.36
2023-01-08T09:18:59.928Z,21.35
2023-01-08T09:21:26.658Z,21.33
2023-01-08T09:23:53.282Z,21.32
2023-01-08T09:26:19.937Z,21.29
2023-01-08T09:28:46.753Z,21.26
2023-01-08T09:31:13.419Z,21.24
2023-01-08T09:33:40.161Z,21.22
2023-01-08T09:36:10.613Z,21.19
2023-01-08T09:38:37.347Z,21.18
2023-01-08T09:41:09.971Z,21.15
2023-01-08T09:43:37.955Z,21.11
2023-01-08T09:46:05.983Z,21.08
2023-01-08T09:48:36.226Z,21.05
2023-01-08T09:51:02.987Z,21.01
2023-01-08T09:53:29.961Z,20.99
2023-01-08T09:56:09.617Z,20.97
2023-01-08T09:58:41.696Z,20.96
2023-01-08T10:01:11.865Z,20.92
2023-01-08T10:03:47.964Z,20.89
2023-01-08T10:06:15.387Z,20.87
2023-01-08T10:08:42.330Z,20.84
2023-01-08T10:11:10.297Z,20.82
2023-01-08T10:13:39.459Z,20.80
2023-01-08T10:16:07.644Z,20.78
2023-01-08T10:18:35.234Z,20.75
2023-01-08T10:21:01.883Z,20.74
2023-01-08T10:23:28.571Z,20.73
2023-01-08T10:25:59.376Z,20.71
2023-01-08T10:28:27.658Z,20.69
2023-01-08T10:30:58.860Z,20.67
2023-01-08T10:33:30.324Z,20.66
2023-01-08T10:36:00.514Z,20.64
2023-01-08T10:38:33.104Z,20.62
2023-01-08T10:41:03.718Z,20.59
2023-01-08T10:43:33.939Z,20.58
2023-01-08T10:46:03.422Z,20.56
2023-01-08T10:48:39.546Z,20.54
2023-01-08T10:51:13.222Z,20.51
2023-01-08T10:53:41.455Z,20.49
2023-01-08T10:56:18.453Z,20.46
2023-01-08T10:58:45.199Z,20.43
2023-01-08T11:01:13.366Z,20.39
2023-01-08T11:03:40.820Z,20.36
2023-01-08T11:06:12.113Z,20.34
2023-01-08T11:08:38.803Z,20.34
2023-01-08T11:11:14.276Z,20.31
2023-01-08T11:13:40.978Z,20.31
2023-01-08T11:16:10.797Z,20.29
2023-01-08T11:18:46.271Z,20.29
2023-01-08T11:21:22.492Z,20.26
2023-01-08T11:24:02.225Z,20.24
2023-01-08T11:26:29.314Z,19.84
2023-01-08T11:28:57.159Z,19.76
2023-01-08T11:31:33.410Z,19.83
2023-01-08T11:34:06.348Z,19.90
2023-01-08T11:36:34.842Z,19.99
2023-01-08T11:39:02.427Z,20.06
2023-01-08T11:41:30.248Z,20.12
2023-01-08T11:44:06.470Z,20.18
2023-01-08T11:46:40.004Z,20.23
2023-01-08T11:49:16.549Z,20.28
2023-01-08T11:51:55.088Z,20.33
2023-01-08T11:54:25.066Z,20.38
2023-01-08T11:57:01.479Z,20.43
2023-01-08T11:59:36.876Z,20.50
2023-01-08T12:02:16.095Z,20.57
2023-01-08T12:04:52.451Z,20.58
2023-01-08T12:07:25.923Z,20.63
2023-01-08T12:10:02.561Z,20.66
2023-01-08T12:12:30.405Z,20.69
2023-01-08T12:15:06.436Z,20.72
2023-01-08T12:17:44.105Z,20.74
2023-01-08T12:20:21.491Z,20.78
2023-01-08T12:22:56.220Z,20.81
2023-01-08T12:25:33.065Z,20.83
2023-01-08T12:28:06.255Z,20.84
2023-01-08T12:30:42.441Z,20.86
2023-01-08T12:33:13.178Z,20.89
2023-01-08T12:35:41.931Z,20.92
2023-01-08T12:38:13.423Z,20.94
2023-01-08T12:40:47.267Z,20.76
2023-01-08T12:43:18.843Z,20.80
2023-01-08T12:45:47.256Z,20.86
2023-01-08T12:48:16.202Z,20.89
2023-01-08T12:50:43.021Z,20.92
2023-01-08T12:53:19.292Z,20.94
2023-01-08T12:56:00.107Z,20.98
2023-01-08T12:58:31.898Z,21.01
2023-01-08T13:01:10.253Z,21.03
2023-01-08T13:03:37.368Z,21.06
2023-01-08T13:06:09.087Z,21.08
2023-01-08T13:08:37.256Z,21.10
2023-01-08T13:11:04.120Z,21.14
2023-01-08T13:13:32.482Z,21.16
2023-01-08T13:16:08.502Z,21.17
2023-01-08T13:18:35.430Z,21.21
2023-01-08T13:21:03.381Z,21.22
2023-01-08T13:23:31.121Z,21.23
2023-01-08T13:25:59.315Z,21.25
2023-01-08T13:28:28.399Z,21.27
2023-01-08T13:30:56.549Z,21.28
2023-01-08T13:33:32.506Z,21.30
2023-01-08T13:36:08.559Z,21.30
2023-01-08T13:38:35.273Z,21.30
2023-01-08T13:41:01.958Z,21.30
2023-01-08T13:43:30.585Z,21.32
2023-01-08T13:45:58.540Z,21.32
2023-01-08T13:48:27.451Z,21.33
2023-01-08T13:50:54.459Z,21.34
2023-01-08T13:53:21.583Z,21.35
2023-01-08T13:55:57.506Z,21.36
2023-01-08T13:58:25.467Z,21.37
2023-01-08T14:00:54.296Z,21.39
2023-01-08T14:03:24.276Z,21.41
2023-01-08T14:05:51.547Z,21.42
2023-01-08T14:08:22.129Z,21.43
2023-01-08T14:10:49.059Z,21.46
2023-01-08T14:13:17.417Z,21.46
2023-01-08T14:15:44.555Z,21.49
2023-01-08T14:18:13.805Z,21.49
2023-01-08T14:20:42.406Z,21.52
2023-01-08T14:23:12.179Z,21.54
2023-01-08T14:25:40.537Z,21.57
2023-01-08T14:28:07.678Z,21.58
2023-01-08T14:30:35.797Z,21.62
2023-01-08T14:33:03.088Z,21.64
2023-01-08T14:35:33.069Z,21.67
2023-01-08T14:38:00.837Z,21.69
2023-01-08T14:40:30.870Z,21.72
2023-01-08T14:42:58.917Z,21.75
2023-01-08T14:45:29.960Z,21.79
2023-01-08T14:47:59.223Z,21.82
2023-01-08T14:50:27.145Z,21.85
2023-01-08T14:52:57.718Z,21.89
2023-01-08T14:55:25.867Z,21.93
2023-01-08T14:57:53.847Z,21.95
2023-01-08T15:00:24.105Z,21.97
2023-01-08T15:02:51.157Z,22.00
2023-01-08T15:05:20.871Z,22.02
2023-01-08T15:07:57.857Z,22.03
2023-01-08T15:10:33.634Z,22.04
2023-01-08T15:13:01.394Z,22.05
2023-01-08T15:15:28.429Z,22.05
2023-01-08T15:17:55.223Z,22.06
2023-01-08T15:20:25.538Z,22.06
2023-01-08T15:22:52.275Z,22.06
2023-01-08T15:25:23.924Z,22.07
2023-01-08T15:28:01.264Z,22.06
2023-01-08T15:30:33.396Z,22.07
2023-01-08T15:33:08.285Z,22.07
2023-01-08T15:35:35.286Z,22.08
2023-01-08T15:38:02.225Z,22.07
2023-01-08T15:40:29.048Z,22.06
2023-01-08T15:43:08.505Z,22.07
2023-01-08T15:45:35.317Z,22.07
2023-01-08T15:48:02.479Z,22.06
2023-01-08T15:50:29.735Z,22.07
2023-01-08T15:52:57.632Z,22.07
2023-01-08T15:55:25.199Z,22.09
2023-01-08T15:57:52.123Z,22.09
2023-01-08T16:00:20.746Z,22.09
2023-01-08T16:02:48.785Z,22.09
2023-01-08T16:05:17.858Z,22.10
2023-01-08T16:07:46.344Z,22.10
2023-01-08T16:10:13.995Z,22.12
2023-01-08T16:12:40.885Z,22.13
2023-01-08T16:15:09.078Z,22.16
2023-01-08T16:17:36.899Z,22.18
2023-01-08T16:20:04.589Z,22.17
2023-01-08T16:22:31.330Z,22.17
2023-01-08T16:24:59.340Z,22.16
2023-01-08T16:27:26.188Z,22.15
2023-01-08T16:29:52.956Z,22.10
2023-01-08T16:32:19.789Z,22.09
2023-01-08T16:34:46.525Z,22.08
2023-01-08T16:37:13.367Z,22.06
2023-01-08T16:39:40.077Z,22.04
2023-01-08T16:42:06.956Z,22.00
2023-01-08T16:44:35.904Z,21.96
2023-01-08T16:47:02.719Z,21.96
2023-01-08T16:49:29.875Z,21.92
2023-01-08T16:51:56.585Z,21.88
2023-01-08T16:54:23.532Z,21.84
2023-01-08T16:56:52.423Z,21.81
2023-01-08T16:59:23.588Z,21.78
2023-01-08T17:01:51.240Z,21.75
2023-01-08T17:04:18.005Z,21.71
2023-01-08T17:06:45.026Z,21.69
2023-01-08T17:09:11.993Z,21.68
2023-01-08T17:11:38.979Z,21.67
2023-01-08T17:14:05.856Z,21.65
2023-01-08T17:16:32.845Z,21.64
2023-01-08T17:18:59.696Z,21.64
2023-01-08T17:21:26.596Z,21.62
2023-01-08T17:23:53.377Z,21.62
2023-01-08T17:26:20.209Z,21.63
2023-01-08T17:28:47.801Z,21.64
2023-01-08T17:31:16.056Z,21.65
2023-01-08T17:33:44.087Z,21.64
2023-01-08T17:36:12.591Z,21.62
2023-01-08T17:38:39.771Z,21.62
2023-01-08T17:41:08.466Z,21.62
2023-01-08T17:46:03.892Z,21.59
2023-01-08T17:48:30.749Z,21.58
2023-01-08T17:50:57.687Z,21.55
2023-01-08T17:53:24.540Z,21.52
2023-01-08T17:55:53.776Z,21.50
2023-01-08T17:58:20.896Z,21.49
2023-01-08T18:00:47.707Z,21.48
2023-01-08T18:03:14.472Z,21.45
2023-01-08T18:05:41.211Z,21.43
2023-01-08T18:08:07.923Z,21.42
2023-01-08T18:10:34.869Z,21.40
2023-01-08T18:13:01.507Z,21.37
2023-01-08T18:15:28.527Z,21.35
2023-01-08T18:17:55.354Z,21.33
2023-01-08T18:20:22.235Z,21.29
2023-01-08T18:22:49.221Z,21.26
2023-01-08T18:25:16.106Z,21.24
2023-01-08T18:27:42.994Z,21.22
2023-01-08T18:30:10.534Z,21.19
2023-01-08T18:32:37.371Z,21.17
2023-01-08T18:35:04.437Z,21.14
2023-01-08T18:37:32.580Z,21.11
2023-01-08T18:39:59.332Z,21.08
2023-01-08T18:42:26.054Z,21.06
2023-01-08T18:44:55.616Z,21.04
2023-01-08T18:47:22.955Z,21.00
2023-01-08T18:49:52.409Z,20.97
2023-01-08T18:52:19.292Z,20.95
2023-01-08T18:54:46.157Z,20.92
2023-01-08T18:57:12.981Z,20.88
2023-01-08T18:59:39.777Z,20.84
2023-01-08T19:02:06.732Z,20.83
2023-01-08T19:04:33.678Z,20.79
2023-01-08T19:07:00.576Z,20.78
2023-01-08T19:09:28.234Z,20.74
2023-01-08T19:11:54.992Z,20.72
2023-01-08T19:14:21.998Z,20.69
2023-01-08T19:16:51.656Z,20.67
2023-01-08T19:19:19.613Z,20.64
2023-01-08T19:21:46.483Z,20.62
2023-01-08T19:24:14.507Z,20.58
2023-01-08T19:26:41.258Z,20.57
2023-01-08T19:29:08.087Z,20.57
2023-01-08T19:31:35.023Z,20.56
2023-01-08T19:34:02.155Z,20.57
2023-01-08T19:36:29.136Z,20.59
2023-01-08T19:38:55.966Z,20.60
2023-01-08T19:41:32.412Z,20.64
2023-01-08T19:43:59.776Z,20.66
2023-01-08T19:46:26.739Z,20.69
2023-01-08T19:48:56.143Z,20.71
2023-01-08T19:51:22.959Z,20.74
2023-01-08T19:53:49.709Z,20.76
2023-01-08T19:56:16.561Z,20.79
2023-01-08T19:58:43.375Z,20.81
2023-01-08T20:01:14.630Z,20.83
2023-01-08T20:03:42.161Z,20.86
2023-01-08T20:06:11.846Z,20.90
2023-01-08T20:08:38.954Z,20.92
2023-01-08T20:11:06.969Z,20.96
2023-01-08T20:13:36.347Z,20.98
2023-01-08T20:16:04.445Z,21.00
2023-01-08T20:18:31.610Z,21.03
2023-01-08T20:21:07.763Z,21.07
2023-01-08T20:23:36.702Z,21.08
2023-01-08T20:26:06.671Z,21.11
2023-01-08T20:28:34.198Z,21.13
2023-01-08T20:31:05.455Z,21.17
2023-01-08T20:33:32.183Z,21.20
2023-01-08T20:35:58.985Z,21.21
2023-01-08T20:38:25.704Z,21.24
2023-01-08T20:40:52.587Z,21.27
2023-01-08T20:43:19.438Z,21.30
2023-01-08T20:45:47.588Z,21.32
2023-01-08T20:48:14.636Z,21.35
2023-01-08T20:50:47.117Z,21.38
2023-01-08T20:53:14.788Z,21.40
2023-01-08T20:55:41.676Z,21.43
2023-01-08T20:58:08.737Z,21.45
2023-01-08T21:00:35.619Z,21.47
2023-01-08T21:03:02.484Z,21.51
2023-01-08T21:05:30.523Z,21.52
2023-01-08T21:07:57.276Z,21.54
2023-01-08T21:10:24.094Z,21.58
2023-01-08T21:12:51.147Z,21.60
2023-01-08T21:15:18.027Z,21.61
2023-01-08T21:17:44.911Z,21.63
2023-01-08T21:20:12.351Z,21.66
2023-01-08T21:22:39.151Z,21.68
2023-01-08T21:25:06.499Z,21.71
2023-01-08T21:27:33.244Z,21.73
2023-01-08T21:30:00.015Z,21.74
2023-01-08T21:32:26.776Z,21.74
2023-01-08T21:34:53.695Z,21.76
2023-01-08T21:37:20.566Z,21.79
2023-01-08T21:39:48.254Z,21.81
2023-01-08T21:42:25.056Z,21.82
2023-01-08T21:45:10.644Z,21.83
2023-01-08T21:47:37.527Z,21.85
2023-01-08T21:50:04.406Z,21.85
2023-01-08T21:52:40.398Z,21.85
2023-01-08T21:55:09.887Z,21.85
2023-01-08T21:57:38.384Z,21.86
2023-01-08T22:00:06.167Z,21.85
2023-01-08T22:02:32.924Z,21.85
2023-01-08T22:04:59.760Z,21.83
2023-01-08T22:07:26.566Z,21.83
2023-01-08T22:09:53.699Z,21.84
2023-01-08T22:12:21.044Z,21.85
2023-01-08T22:14:47.927Z,21.86
2023-01-08T22:17:14.968Z,21.87
2023-01-08T22:19:41.691Z,21.89
2023-01-08T22:22:10.716Z,21.89
2023-01-08T22:24:37.885Z,21.91
2023-01-08T22:27:04.689Z,21.92
2023-01-08T22:29:31.636Z,21.94
2023-01-08T22:31:58.519Z,21.96
2023-01-08T22:34:25.998Z,21.98
2023-01-08T22:36:53.555Z,21.98
2023-01-08T22:39:20.397Z,22.00
2023-01-08T22:41:47.295Z,22.02
2023-01-08T22:44:14.652Z,22.02
2023-01-08T22:46:41.727Z,22.04
2023-01-08T22:49:10.687Z,22.04
2023-01-08T22:51:37.630Z,22.03
2023-01-08T22:54:04.591Z,22.03
2023-01-08T22:56:31.315Z,22.03
2023-01-08T22:58:58.165Z,22.03
2023-01-08T23:01:26.059Z,22.03
2023-01-08T23:03:56.159Z,22.04
2023-01-08T23:06:23.780Z,22.05
2023-01-08T23:08:50.870Z,22.07
2023-01-08T23:11:18.185Z,22.07
2023-01-08T23:13:45.185Z,22.09
2023-01-08T23:16:13.719Z,22.09
2023-01-08T23:18:41.050Z,22.12
2023-01-08T23:21:09.248Z,22.14
2023-01-08T23:23:36.240Z,22.14
2023-01-08T23:26:05.097Z,22.15
2023-01-08T23:28:32.262Z,22.16
2023-01-08T23:30:59.192Z,22.16
2023-01-08T23:33:26.130Z,22.16
2023-01-08T23:35:53.004Z,22.16
2023-01-08T23:38:19.986Z,22.16
2023-01-08T23:40:47.183Z,22.15
2023-01-08T23:43:15.052Z,22.13
2023-01-08T23:45:41.910Z,22.14
2023-01-08T23:48:08.635Z,22.14
2023-01-08T23:50:35.589Z,22.15
2023-01-08T23:53:02.337Z,22.16
2023-01-08T23:55:29.115Z,22.17
2023-01-08T23:57:56.404Z,22.17
